sensor_id;sensor_type;location;lat;lon;timestamp;P1;durP1;ratioP1;P2;durP2;ratioP2
35715;SDS011;21840;44.920;8.616;2023-07-20T00:01:16;21.73;;;5.70;;
35715;SDS011;21840;44.920;8.616;2023-07-20T00:03:42;18.00;;;6.15;;
35715;SDS011;21840;44.920;8.616;2023-07-20T00:06:07;16.27;;;6.20;;
35715;SDS011;21840;44.920;8.616;2023-07-20T00:08:33;16.52;;;6.28;;
35715;SDS011;21840;44.920;8.616;2023-07-20T00:10:59;18.70;;;6.90;;
35715;SDS011;21840;44.920;8.616;2023-07-20T00:13:24;27.02;;;6.35;;
35715;SDS011;21840;44.920;8.616;2023-07-20T00:15:51;16.65;;;5.93;;
35715;SDS011;21840;44.920;8.616;2023-07-20T00:18:17;15.73;;;5.95;;
35715;SDS011;21840;44.920;8.616;2023-07-20T00:20:42;17.73;;;6.43;;
35715;SDS011;21840;44.920;8.616;2023-07-20T00:23:08;17.90;;;6.32;;
35715;SDS011;21840;44.920;8.616;2023-07-20T00:25:34;26.70;;;7.32;;
35715;SDS011;21840;44.920;8.616;2023-07-20T00:28:00;13.77;;;6.47;;
35715;SDS011;21840;44.920;8.616;2023-07-20T00:30:26;13.60;;;5.88;;
35715;SDS011;21840;44.920;8.616;2023-07-20T00:32:51;15.57;;;6.35;;
35715;SDS011;21840;44.920;8.616;2023-07-20T00:35:17;12.70;;;5.78;;
35715;SDS011;21840;44.920;8.616;2023-07-20T00:37:42;22.25;;;7.10;;
35715;SDS011;21840;44.920;8.616;2023-07-20T00:40:08;14.02;;;6.07;;
35715;SDS011;21840;44.920;8.616;2023-07-20T00:42:34;18.20;;;6.18;;
35715;SDS011;21840;44.920;8.616;2023-07-20T00:45:01;16.77;;;6.40;;
35715;SDS011;21840;44.920;8.616;2023-07-20T00:47:28;19.27;;;7.20;;
35715;SDS011;21840;44.920;8.616;2023-07-20T00:49:53;17.55;;;7.28;;
35715;SDS011;21840;44.920;8.616;2023-07-20T00:52:23;14.00;;;5.80;;
35715;SDS011;21840;44.920;8.616;2023-07-20T00:54:50;19.77;;;6.70;;
35715;SDS011;21840;44.920;8.616;2023-07-20T00:57:17;16.15;;;6.18;;
35715;SDS011;21840;44.920;8.616;2023-07-20T00:59:42;15.95;;;6.97;;
35715;SDS011;21840;44.920;8.616;2023-07-20T01:02:08;17.55;;;6.07;;
35715;SDS011;21840;44.920;8.616;2023-07-20T01:04:34;15.32;;;6.53;;
35715;SDS011;21840;44.920;8.616;2023-07-20T01:07:01;17.05;;;7.20;;
35715;SDS011;21840;44.920;8.616;2023-07-20T01:09:44;22.10;;;8.18;;
35715;SDS011;21840;44.920;8.616;2023-07-20T01:12:22;16.37;;;7.73;;
35715;SDS011;21840;44.920;8.616;2023-07-20T01:14:55;22.38;;;8.20;;
35715;SDS011;21840;44.920;8.616;2023-07-20T01:17:21;23.02;;;8.32;;
35715;SDS011;21840;44.920;8.616;2023-07-20T01:19:49;27.92;;;7.60;;
35715;SDS011;21840;44.920;8.616;2023-07-20T01:33:25;27.27;;;8.13;;
35715;SDS011;21840;44.920;8.616;2023-07-20T01:35:53;25.60;;;7.40;;
35715;SDS011;21840;44.920;8.616;2023-07-20T01:38:21;22.17;;;7.97;;
35715;SDS011;21840;44.920;8.616;2023-07-20T01:40:49;27.45;;;8.95;;
35715;SDS011;21840;44.920;8.616;2023-07-20T01:43:15;24.08;;;8.32;;
35715;SDS011;21840;44.920;8.616;2023-07-20T01:45:42;25.27;;;8.68;;
35715;SDS011;21840;44.920;8.616;2023-07-20T01:48:07;15.82;;;7.70;;
35715;SDS011;21840;44.920;8.616;2023-07-20T01:50:34;16.80;;;8.07;;
35715;SDS011;21840;44.920;8.616;2023-07-20T01:53:00;22.33;;;8.15;;
35715;SDS011;21840;44.920;8.616;2023-07-20T01:55:26;24.25;;;7.53;;
35715;SDS011;21840;44.920;8.616;2023-07-20T01:57:51;19.35;;;7.82;;
35715;SDS011;21840;44.920;8.616;2023-07-20T02:00:17;21.75;;;8.57;;
35715;SDS011;21840;44.920;8.616;2023-07-20T02:02:46;18.90;;;7.38;;
35715;SDS011;21840;44.920;8.616;2023-07-20T02:05:11;18.13;;;8.05;;
35715;SDS011;21840;44.920;8.616;2023-07-20T02:07:37;21.65;;;7.18;;
35715;SDS011;21840;44.920;8.616;2023-07-20T02:10:02;16.98;;;6.72;;
35715;SDS011;21840;44.920;8.616;2023-07-20T02:12:28;19.30;;;7.90;;
35715;SDS011;21840;44.920;8.616;2023-07-20T02:14:54;15.52;;;6.97;;
35715;SDS011;21840;44.920;8.616;2023-07-20T02:17:19;18.02;;;8.00;;
35715;SDS011;21840;44.920;8.616;2023-07-20T02:19:45;19.45;;;7.28;;
35715;SDS011;21840;44.920;8.616;2023-07-20T02:22:10;22.55;;;6.88;;
35715;SDS011;21840;44.920;8.616;2023-07-20T02:24:36;16.45;;;7.43;;
35715;SDS011;21840;44.920;8.616;2023-07-20T02:27:01;16.73;;;7.70;;
35715;SDS011;21840;44.920;8.616;2023-07-20T02:29:27;14.43;;;7.13;;
35715;SDS011;21840;44.920;8.616;2023-07-20T02:31:52;25.48;;;7.38;;
35715;SDS011;21840;44.920;8.616;2023-07-20T02:34:18;28.02;;;7.20;;
35715;SDS011;21840;44.920;8.616;2023-07-20T02:36:45;32.35;;;8.73;;
35715;SDS011;21840;44.920;8.616;2023-07-20T02:39:11;17.23;;;6.80;;
35715;SDS011;21840;44.920;8.616;2023-07-20T02:41:36;21.75;;;7.05;;
35715;SDS011;21840;44.920;8.616;2023-07-20T02:44:02;20.58;;;7.20;;
35715;SDS011;21840;44.920;8.616;2023-07-20T02:46:28;22.40;;;7.32;;
35715;SDS011;21840;44.920;8.616;2023-07-20T02:48:55;14.65;;;6.75;;
35715;SDS011;21840;44.920;8.616;2023-07-20T02:51:20;16.50;;;6.57;;
35715;SDS011;21840;44.920;8.616;2023-07-20T02:53:49;21.35;;;6.53;;
35715;SDS011;21840;44.920;8.616;2023-07-20T02:56:14;27.63;;;7.07;;
35715;SDS011;21840;44.920;8.616;2023-07-20T02:58:41;14.50;;;6.93;;
35715;SDS011;21840;44.920;8.616;2023-07-20T03:01:11;17.27;;;7.05;;
35715;SDS011;21840;44.920;8.616;2023-07-20T03:03:37;16.27;;;7.03;;
35715;SDS011;21840;44.920;8.616;2023-07-20T03:06:03;27.55;;;7.03;;
35715;SDS011;21840;44.920;8.616;2023-07-20T03:08:29;19.42;;;6.82;;
35715;SDS011;21840;44.920;8.616;2023-07-20T03:10:55;25.77;;;6.78;;
35715;SDS011;21840;44.920;8.616;2023-07-20T03:13:20;40.45;;;7.68;;
35715;SDS011;21840;44.920;8.616;2023-07-20T03:15:46;21.42;;;6.68;;
35715;SDS011;21840;44.920;8.616;2023-07-20T03:18:11;18.55;;;7.03;;
35715;SDS011;21840;44.920;8.616;2023-07-20T03:20:37;26.38;;;7.18;;
35715;SDS011;21840;44.920;8.616;2023-07-20T03:23:03;20.52;;;6.70;;
35715;SDS011;21840;44.920;8.616;2023-07-20T03:25:29;16.58;;;6.38;;
35715;SDS011;21840;44.920;8.616;2023-07-20T03:27:54;25.60;;;7.60;;
35715;SDS011;21840;44.920;8.616;2023-07-20T03:30:20;24.35;;;8.02;;
35715;SDS011;21840;44.920;8.616;2023-07-20T03:32:47;23.20;;;7.47;;
35715;SDS011;21840;44.920;8.616;2023-07-20T03:35:12;22.58;;;7.47;;
35715;SDS011;21840;44.920;8.616;2023-07-20T03:37:56;21.98;;;7.65;;
35715;SDS011;21840;44.920;8.616;2023-07-20T03:40:22;20.10;;;7.80;;
35715;SDS011;21840;44.920;8.616;2023-07-20T03:42:48;18.70;;;7.15;;
35715;SDS011;21840;44.920;8.616;2023-07-20T03:45:13;18.17;;;7.35;;
35715;SDS011;21840;44.920;8.616;2023-07-20T03:47:39;16.35;;;6.43;;
35715;SDS011;21840;44.920;8.616;2023-07-20T03:50:05;23.83;;;7.53;;
35715;SDS011;21840;44.920;8.616;2023-07-20T03:52:31;18.25;;;7.05;;
35715;SDS011;21840;44.920;8.616;2023-07-20T03:54:57;11.88;;;6.72;;
35715;SDS011;21840;44.920;8.616;2023-07-20T03:57:22;19.38;;;7.05;;
35715;SDS011;21840;44.920;8.616;2023-07-20T03:59:48;18.88;;;6.63;;
35715;SDS011;21840;44.920;8.616;2023-07-20T04:02:14;16.83;;;6.68;;
35715;SDS011;21840;44.920;8.616;2023-07-20T04:04:41;20.48;;;6.50;;
35715;SDS011;21840;44.920;8.616;2023-07-20T04:07:07;23.23;;;6.32;;
35715;SDS011;21840;44.920;8.616;2023-07-20T04:09:32;22.25;;;7.05;;
35715;SDS011;21840;44.920;8.616;2023-07-20T04:11:58;22.77;;;7.22;;
35715;SDS011;21840;44.920;8.616;2023-07-20T04:14:23;25.48;;;7.20;;
35715;SDS011;21840;44.920;8.616;2023-07-20T04:16:49;17.05;;;6.45;;
35715;SDS011;21840;44.920;8.616;2023-07-20T04:19:16;26.40;;;7.50;;
35715;SDS011;21840;44.920;8.616;2023-07-20T04:21:43;14.68;;;6.18;;
35715;SDS011;21840;44.920;8.616;2023-07-20T04:24:08;15.30;;;4.95;;
35715;SDS011;21840;44.920;8.616;2023-07-20T04:26:34;15.10;;;5.93;;
35715;SDS011;21840;44.920;8.616;2023-07-20T04:29:00;15.35;;;5.45;;
35715;SDS011;21840;44.920;8.616;2023-07-20T04:31:35;18.13;;;5.70;;
35715;SDS011;21840;44.920;8.616;2023-07-20T04:34:02;14.77;;;5.70;;
35715;SDS011;21840;44.920;8.616;2023-07-20T04:36:31;15.18;;;5.63;;
35715;SDS011;21840;44.920;8.616;2023-07-20T04:38:57;20.88;;;5.35;;
35715;SDS011;21840;44.920;8.616;2023-07-20T04:41:22;15.45;;;5.07;;
35715;SDS011;21840;44.920;8.616;2023-07-20T04:43:54;16.08;;;4.82;;
35715;SDS011;21840;44.920;8.616;2023-07-20T04:46:25;12.27;;;5.15;;
35715;SDS011;21840;44.920;8.616;2023-07-20T04:48:51;14.55;;;4.75;;
35715;SDS011;21840;44.920;8.616;2023-07-20T04:51:17;15.65;;;5.15;;
35715;SDS011;21840;44.920;8.616;2023-07-20T04:53:46;14.98;;;4.75;;
35715;SDS011;21840;44.920;8.616;2023-07-20T04:56:12;18.60;;;5.22;;
35715;SDS011;21840;44.920;8.616;2023-07-20T04:58:38;16.10;;;5.20;;
35715;SDS011;21840;44.920;8.616;2023-07-20T05:01:04;20.63;;;5.22;;
35715;SDS011;21840;44.920;8.616;2023-07-20T05:03:34;15.82;;;4.53;;
35715;SDS011;21840;44.920;8.616;2023-07-20T05:05:59;11.82;;;4.55;;
35715;SDS011;21840;44.920;8.616;2023-07-20T05:08:25;11.25;;;4.72;;
35715;SDS011;21840;44.920;8.616;2023-07-20T05:10:51;9.77;;;5.07;;
35715;SDS011;21840;44.920;8.616;2023-07-20T05:13:17;8.98;;;4.35;;
35715;SDS011;21840;44.920;8.616;2023-07-20T05:15:45;12.30;;;4.53;;
35715;SDS011;21840;44.920;8.616;2023-07-20T05:18:14;12.95;;;4.95;;
35715;SDS011;21840;44.920;8.616;2023-07-20T05:20:48;16.95;;;5.38;;
35715;SDS011;21840;44.920;8.616;2023-07-20T05:23:14;13.00;;;3.97;;
35715;SDS011;21840;44.920;8.616;2023-07-20T05:25:42;14.70;;;4.90;;
35715;SDS011;21840;44.920;8.616;2023-07-20T05:28:08;16.92;;;5.38;;
35715;SDS011;21840;44.920;8.616;2023-07-20T05:30:33;10.23;;;4.60;;
35715;SDS011;21840;44.920;8.616;2023-07-20T05:32:59;12.77;;;4.57;;
35715;SDS011;21840;44.920;8.616;2023-07-20T05:35:25;13.68;;;5.80;;
35715;SDS011;21840;44.920;8.616;2023-07-20T05:37:51;12.98;;;5.30;;
35715;SDS011;21840;44.920;8.616;2023-07-20T05:40:17;7.85;;;5.45;;
35715;SDS011;21840;44.920;8.616;2023-07-20T05:42:46;11.43;;;6.13;;
35715;SDS011;21840;44.920;8.616;2023-07-20T05:45:17;12.95;;;5.72;;
35715;SDS011;21840;44.920;8.616;2023-07-20T05:47:43;14.10;;;6.82;;
35715;SDS011;21840;44.920;8.616;2023-07-20T05:50:09;11.52;;;5.88;;
35715;SDS011;21840;44.920;8.616;2023-07-20T05:52:35;14.48;;;7.00;;
35715;SDS011;21840;44.920;8.616;2023-07-20T05:55:01;11.40;;;7.10;;
35715;SDS011;21840;44.920;8.616;2023-07-20T05:57:26;15.65;;;6.85;;
35715;SDS011;21840;44.920;8.616;2023-07-20T05:59:51;16.05;;;6.75;;
35715;SDS011;21840;44.920;8.616;2023-07-20T06:02:17;13.45;;;6.88;;
35715;SDS011;21840;44.920;8.616;2023-07-20T06:04:43;12.05;;;7.20;;
35715;SDS011;21840;44.920;8.616;2023-07-20T06:07:08;10.85;;;7.20;;
35715;SDS011;21840;44.920;8.616;2023-07-20T06:09:34;20.00;;;7.72;;
35715;SDS011;21840;44.920;8.616;2023-07-20T06:12:02;18.10;;;7.85;;
35715;SDS011;21840;44.920;8.616;2023-07-20T06:14:28;14.93;;;7.13;;
35715;SDS011;21840;44.920;8.616;2023-07-20T06:16:54;10.65;;;6.78;;
35715;SDS011;21840;44.920;8.616;2023-07-20T06:19:19;12.98;;;7.57;;
35715;SDS011;21840;44.920;8.616;2023-07-20T06:21:44;17.55;;;7.57;;
35715;SDS011;21840;44.920;8.616;2023-07-20T06:24:10;12.65;;;6.72;;
35715;SDS011;21840;44.920;8.616;2023-07-20T06:26:35;12.93;;;6.78;;
35715;SDS011;21840;44.920;8.616;2023-07-20T06:29:07;12.80;;;7.13;;
35715;SDS011;21840;44.920;8.616;2023-07-20T06:31:35;13.77;;;7.32;;
35715;SDS011;21840;44.920;8.616;2023-07-20T06:34:01;23.73;;;7.70;;
35715;SDS011;21840;44.920;8.616;2023-07-20T06:36:27;13.15;;;6.68;;
35715;SDS011;21840;44.920;8.616;2023-07-20T06:38:53;14.85;;;7.50;;
35715;SDS011;21840;44.920;8.616;2023-07-20T06:41:19;20.90;;;8.38;;
35715;SDS011;21840;44.920;8.616;2023-07-20T06:43:44;20.98;;;7.03;;
35715;SDS011;21840;44.920;8.616;2023-07-20T06:46:10;12.85;;;5.97;;
35715;SDS011;21840;44.920;8.616;2023-07-20T06:48:36;15.77;;;6.90;;
35715;SDS011;21840;44.920;8.616;2023-07-20T06:51:01;14.50;;;6.22;;
35715;SDS011;21840;44.920;8.616;2023-07-20T06:53:27;13.40;;;7.28;;
35715;SDS011;21840;44.920;8.616;2023-07-20T06:55:53;14.90;;;7.40;;
35715;SDS011;21840;44.920;8.616;2023-07-20T06:58:19;14.52;;;7.07;;
35715;SDS011;21840;44.920;8.616;2023-07-20T07:00:46;12.48;;;7.03;;
35715;SDS011;21840;44.920;8.616;2023-07-20T07:03:12;15.32;;;7.30;;
35715;SDS011;21840;44.920;8.616;2023-07-20T07:05:37;12.45;;;6.80;;
35715;SDS011;21840;44.920;8.616;2023-07-20T07:08:06;16.90;;;6.75;;
35715;SDS011;21840;44.920;8.616;2023-07-20T07:10:32;17.33;;;6.85;;
35715;SDS011;21840;44.920;8.616;2023-07-20T07:12:58;18.77;;;6.97;;
35715;SDS011;21840;44.920;8.616;2023-07-20T07:15:23;19.30;;;7.10;;
35715;SDS011;21840;44.920;8.616;2023-07-20T07:17:49;13.70;;;7.15;;
35715;SDS011;21840;44.920;8.616;2023-07-20T07:20:15;17.38;;;6.47;;
35715;SDS011;21840;44.920;8.616;2023-07-20T07:22:41;16.00;;;7.38;;
35715;SDS011;21840;44.920;8.616;2023-07-20T07:25:09;17.20;;;7.85;;
35715;SDS011;21840;44.920;8.616;2023-07-20T07:27:35;18.55;;;7.20;;
35715;SDS011;21840;44.920;8.616;2023-07-20T07:30:00;17.33;;;7.90;;
35715;SDS011;21840;44.920;8.616;2023-07-20T07:32:26;18.52;;;6.80;;
35715;SDS011;21840;44.920;8.616;2023-07-20T07:34:51;12.18;;;6.72;;
35715;SDS011;21840;44.920;8.616;2023-07-20T07:37:17;20.10;;;6.53;;
35715;SDS011;21840;44.920;8.616;2023-07-20T07:39:44;19.27;;;6.32;;
35715;SDS011;21840;44.920;8.616;2023-07-20T07:42:10;16.15;;;6.95;;
35715;SDS011;21840;44.920;8.616;2023-07-20T07:44:36;17.08;;;6.40;;
35715;SDS011;21840;44.920;8.616;2023-07-20T07:47:03;12.10;;;6.40;;
35715;SDS011;21840;44.920;8.616;2023-07-20T07:49:28;12.13;;;6.30;;
35715;SDS011;21840;44.920;8.616;2023-07-20T07:51:54;17.45;;;6.38;;
35715;SDS011;21840;44.920;8.616;2023-07-20T07:54:19;14.65;;;5.97;;
35715;SDS011;21840;44.920;8.616;2023-07-20T07:56:45;16.55;;;5.72;;
35715;SDS011;21840;44.920;8.616;2023-07-20T07:59:10;15.23;;;5.32;;
35715;SDS011;21840;44.920;8.616;2023-07-20T08:01:36;38.50;;;7.78;;
35715;SDS011;21840;44.920;8.616;2023-07-20T08:04:01;21.98;;;6.85;;
35715;SDS011;21840;44.920;8.616;2023-07-20T08:06:28;13.48;;;5.22;;
35715;SDS011;21840;44.920;8.616;2023-07-20T08:08:54;16.98;;;5.35;;
35715;SDS011;21840;44.920;8.616;2023-07-20T08:11:19;11.80;;;5.38;;
35715;SDS011;21840;44.920;8.616;2023-07-20T08:13:45;12.02;;;5.40;;
35715;SDS011;21840;44.920;8.616;2023-07-20T08:16:10;14.40;;;5.88;;
35715;SDS011;21840;44.920;8.616;2023-07-20T08:18:37;16.63;;;5.53;;
35715;SDS011;21840;44.920;8.616;2023-07-20T08:21:02;10.35;;;4.85;;
35715;SDS011;21840;44.920;8.616;2023-07-20T08:23:28;10.15;;;5.28;;
35715;SDS011;21840;44.920;8.616;2023-07-20T08:25:54;16.20;;;5.18;;
35715;SDS011;21840;44.920;8.616;2023-07-20T08:28:19;13.90;;;4.75;;
35715;SDS011;21840;44.920;8.616;2023-07-20T08:30:46;10.02;;;4.57;;
35715;SDS011;21840;44.920;8.616;2023-07-20T08:33:13;12.57;;;4.88;;
35715;SDS011;21840;44.920;8.616;2023-07-20T08:35:39;15.18;;;4.97;;
35715;SDS011;21840;44.920;8.616;2023-07-20T08:38:05;12.60;;;4.88;;
35715;SDS011;21840;44.920;8.616;2023-07-20T08:40:31;11.52;;;5.38;;
35715;SDS011;21840;44.920;8.616;2023-07-20T08:42:58;19.88;;;4.70;;
35715;SDS011;21840;44.920;8.616;2023-07-20T08:45:30;9.45;;;4.55;;
35715;SDS011;21840;44.920;8.616;2023-07-20T08:48:00;11.70;;;5.57;;
35715;SDS011;21840;44.920;8.616;2023-07-20T08:50:29;14.55;;;5.95;;
35715;SDS011;21840;44.920;8.616;2023-07-20T08:52:56;9.10;;;5.30;;
35715;SDS011;21840;44.920;8.616;2023-07-20T08:55:23;13.50;;;4.82;;
35715;SDS011;21840;44.920;8.616;2023-07-20T08:57:52;19.75;;;5.65;;
35715;SDS011;21840;44.920;8.616;2023-07-20T09:00:20;15.70;;;5.38;;
35715;SDS011;21840;44.920;8.616;2023-07-20T09:02:47;16.52;;;4.90;;
35715;SDS011;21840;44.920;8.616;2023-07-20T09:05:17;12.15;;;4.60;;
35715;SDS011;21840;44.920;8.616;2023-07-20T09:07:46;16.50;;;6.10;;
35715;SDS011;21840;44.920;8.616;2023-07-20T09:10:12;14.48;;;5.20;;
35715;SDS011;21840;44.920;8.616;2023-07-20T09:12:39;12.82;;;4.95;;
35715;SDS011;21840;44.920;8.616;2023-07-20T09:15:09;16.48;;;5.20;;
35715;SDS011;21840;44.920;8.616;2023-07-20T09:17:36;15.93;;;5.50;;
35715;SDS011;21840;44.920;8.616;2023-07-20T09:20:06;9.77;;;5.10;;
35715;SDS011;21840;44.920;8.616;2023-07-20T09:22:35;12.77;;;5.38;;
35715;SDS011;21840;44.920;8.616;2023-07-20T09:25:05;16.40;;;5.13;;
35715;SDS011;21840;44.920;8.616;2023-07-20T09:27:39;16.05;;;4.95;;
35715;SDS011;21840;44.920;8.616;2023-07-20T09:30:06;9.07;;;4.28;;
35715;SDS011;21840;44.920;8.616;2023-07-20T09:32:43;13.20;;;4.30;;
35715;SDS011;21840;44.920;8.616;2023-07-20T09:35:19;11.07;;;4.50;;
35715;SDS011;21840;44.920;8.616;2023-07-20T09:37:58;9.73;;;4.75;;
35715;SDS011;21840;44.920;8.616;2023-07-20T09:40:28;17.63;;;4.78;;
35715;SDS011;21840;44.920;8.616;2023-07-20T09:42:58;12.50;;;5.13;;
35715;SDS011;21840;44.920;8.616;2023-07-20T09:45:50;8.30;;;4.95;;
35715;SDS011;21840;44.920;8.616;2023-07-20T09:48:15;16.23;;;5.00;;
35715;SDS011;21840;44.920;8.616;2023-07-20T09:50:41;15.05;;;4.47;;
35715;SDS011;21840;44.920;8.616;2023-07-20T09:53:08;9.27;;;4.13;;
35715;SDS011;21840;44.920;8.616;2023-07-20T09:55:38;15.10;;;4.68;;
35715;SDS011;21840;44.920;8.616;2023-07-20T09:58:05;8.82;;;4.53;;
35715;SDS011;21840;44.920;8.616;2023-07-20T10:00:32;12.55;;;4.70;;
35715;SDS011;21840;44.920;8.616;2023-07-20T10:03:00;15.05;;;4.40;;
35715;SDS011;21840;44.920;8.616;2023-07-20T10:05:28;9.07;;;4.65;;
35715;SDS011;21840;44.920;8.616;2023-07-20T10:07:59;10.05;;;4.45;;
35715;SDS011;21840;44.920;8.616;2023-07-20T10:10:26;12.63;;;4.63;;
35715;SDS011;21840;44.920;8.616;2023-07-20T10:12:52;11.32;;;4.65;;
35715;SDS011;21840;44.920;8.616;2023-07-20T10:15:25;11.98;;;4.40;;
35715;SDS011;21840;44.920;8.616;2023-07-20T10:17:59;18.00;;;5.15;;
35715;SDS011;21840;44.920;8.616;2023-07-20T10:20:33;13.73;;;4.72;;
35715;SDS011;21840;44.920;8.616;2023-07-20T10:23:01;17.60;;;4.93;;
35715;SDS011;21840;44.920;8.616;2023-07-20T10:25:27;12.43;;;4.78;;
35715;SDS011;21840;44.920;8.616;2023-07-20T10:27:53;12.05;;;5.03;;
35715;SDS011;21840;44.920;8.616;2023-07-20T10:30:20;10.13;;;4.38;;
35715;SDS011;21840;44.920;8.616;2023-07-20T10:32:46;8.95;;;4.68;;
35715;SDS011;21840;44.920;8.616;2023-07-20T10:35:13;10.68;;;4.78;;
35715;SDS011;21840;44.920;8.616;2023-07-20T10:37:50;13.40;;;4.47;;
35715;SDS011;21840;44.920;8.616;2023-07-20T10:40:24;13.82;;;4.97;;
35715;SDS011;21840;44.920;8.616;2023-07-20T10:42:50;13.73;;;5.05;;
35715;SDS011;21840;44.920;8.616;2023-07-20T10:45:19;11.20;;;4.93;;
35715;SDS011;21840;44.920;8.616;2023-07-20T10:47:45;11.77;;;5.00;;
35715;SDS011;21840;44.920;8.616;2023-07-20T10:50:10;13.82;;;4.72;;
35715;SDS011;21840;44.920;8.616;2023-07-20T10:52:37;17.45;;;5.57;;
35715;SDS011;21840;44.920;8.616;2023-07-20T10:55:14;12.48;;;5.18;;
35715;SDS011;21840;44.920;8.616;2023-07-20T10:57:40;17.38;;;5.43;;
35715;SDS011;21840;44.920;8.616;2023-07-20T11:00:09;13.82;;;5.38;;
35715;SDS011;21840;44.920;8.616;2023-07-20T11:02:48;10.43;;;4.95;;
35715;SDS011;21840;44.920;8.616;2023-07-20T11:08:00;12.27;;;6.05;;
35715;SDS011;21840;44.920;8.616;2023-07-20T11:10:29;8.52;;;4.70;;
35715;SDS011;21840;44.920;8.616;2023-07-20T11:13:16;10.13;;;4.93;;
35715;SDS011;21840;44.920;8.616;2023-07-20T11:15:45;11.23;;;4.72;;
35715;SDS011;21840;44.920;8.616;2023-07-20T11:18:26;11.68;;;5.30;;
35715;SDS011;21840;44.920;8.616;2023-07-20T11:20:52;14.93;;;5.97;;
35715;SDS011;21840;44.920;8.616;2023-07-20T11:23:19;15.15;;;5.32;;
35715;SDS011;21840;44.920;8.616;2023-07-20T11:25:48;11.82;;;4.97;;
35715;SDS011;21840;44.920;8.616;2023-07-20T11:28:15;15.48;;;4.95;;
35715;SDS011;21840;44.920;8.616;2023-07-20T11:30:41;21.77;;;5.68;;
35715;SDS011;21840;44.920;8.616;2023-07-20T11:33:09;9.60;;;4.88;;
35715;SDS011;21840;44.920;8.616;2023-07-20T11:35:44;15.45;;;5.45;;
35715;SDS011;21840;44.920;8.616;2023-07-20T11:38:12;17.48;;;6.15;;
35715;SDS011;21840;44.920;8.616;2023-07-20T11:40:47;14.30;;;5.50;;
35715;SDS011;21840;44.920;8.616;2023-07-20T11:43:13;16.45;;;6.05;;
35715;SDS011;21840;44.920;8.616;2023-07-20T11:45:39;14.60;;;5.50;;
35715;SDS011;21840;44.920;8.616;2023-07-20T11:48:05;10.80;;;5.25;;
35715;SDS011;21840;44.920;8.616;2023-07-20T11:50:30;13.52;;;5.25;;
35715;SDS011;21840;44.920;8.616;2023-07-20T11:52:56;18.70;;;5.93;;
35715;SDS011;21840;44.920;8.616;2023-07-20T11:55:22;12.60;;;5.50;;
35715;SDS011;21840;44.920;8.616;2023-07-20T11:58:01;15.75;;;5.70;;
35715;SDS011;21840;44.920;8.616;2023-07-20T12:00:30;15.50;;;5.50;;
35715;SDS011;21840;44.920;8.616;2023-07-20T12:02:57;22.67;;;6.30;;
35715;SDS011;21840;44.920;8.616;2023-07-20T12:05:23;15.15;;;5.50;;
35715;SDS011;21840;44.920;8.616;2023-07-20T12:07:49;14.30;;;5.45;;
35715;SDS011;21840;44.920;8.616;2023-07-20T12:10:16;17.90;;;5.13;;
35715;SDS011;21840;44.920;8.616;2023-07-20T12:12:49;15.88;;;5.63;;
35715;SDS011;21840;44.920;8.616;2023-07-20T12:15:24;9.88;;;5.65;;
35715;SDS011;21840;44.920;8.616;2023-07-20T12:18:01;18.10;;;5.85;;
35715;SDS011;21840;44.920;8.616;2023-07-20T12:23:04;18.60;;;5.93;;
35715;SDS011;21840;44.920;8.616;2023-07-20T12:25:44;14.10;;;5.70;;
35715;SDS011;21840;44.920;8.616;2023-07-20T12:28:12;11.75;;;5.60;;
35715;SDS011;21840;44.920;8.616;2023-07-20T12:30:39;14.25;;;5.57;;
35715;SDS011;21840;44.920;8.616;2023-07-20T12:33:07;15.95;;;5.50;;
35715;SDS011;21840;44.920;8.616;2023-07-20T12:35:33;14.68;;;5.60;;
35715;SDS011;21840;44.920;8.616;2023-07-20T12:37:58;15.43;;;5.65;;
35715;SDS011;21840;44.920;8.616;2023-07-20T12:40:25;15.88;;;5.80;;
35715;SDS011;21840;44.920;8.616;2023-07-20T12:42:50;16.55;;;5.70;;
35715;SDS011;21840;44.920;8.616;2023-07-20T12:45:16;14.40;;;5.63;;
35715;SDS011;21840;44.920;8.616;2023-07-20T12:47:41;12.20;;;5.53;;
35715;SDS011;21840;44.920;8.616;2023-07-20T12:50:11;11.50;;;5.80;;
35715;SDS011;21840;44.920;8.616;2023-07-20T12:52:38;14.93;;;5.07;;
35715;SDS011;21840;44.920;8.616;2023-07-20T12:55:05;10.52;;;5.50;;
35715;SDS011;21840;44.920;8.616;2023-07-20T12:57:32;14.75;;;5.78;;
35715;SDS011;21840;44.920;8.616;2023-07-20T12:59:59;11.68;;;6.22;;
35715;SDS011;21840;44.920;8.616;2023-07-20T13:02:25;13.98;;;6.15;;
35715;SDS011;21840;44.920;8.616;2023-07-20T13:04:50;16.58;;;5.43;;
35715;SDS011;21840;44.920;8.616;2023-07-20T13:07:16;29.02;;;5.72;;
35715;SDS011;21840;44.920;8.616;2023-07-20T13:09:41;17.13;;;5.80;;
35715;SDS011;21840;44.920;8.616;2023-07-20T13:12:07;13.45;;;5.55;;
35715;SDS011;21840;44.920;8.616;2023-07-20T13:14:33;16.95;;;6.55;;
35715;SDS011;21840;44.920;8.616;2023-07-20T13:16:59;20.00;;;5.82;;
35715;SDS011;21840;44.920;8.616;2023-07-20T13:19:24;13.25;;;5.45;;
35715;SDS011;21840;44.920;8.616;2023-07-20T13:21:50;11.20;;;5.60;;
35715;SDS011;21840;44.920;8.616;2023-07-20T13:24:15;14.30;;;5.40;;
35715;SDS011;21840;44.920;8.616;2023-07-20T13:26:41;16.83;;;5.25;;
35715;SDS011;21840;44.920;8.616;2023-07-20T13:29:06;14.35;;;5.88;;
35715;SDS011;21840;44.920;8.616;2023-07-20T13:31:32;14.85;;;5.10;;
35715;SDS011;21840;44.920;8.616;2023-07-20T13:33:57;14.77;;;5.75;;
35715;SDS011;21840;44.920;8.616;2023-07-20T13:36:26;15.85;;;6.40;;
35715;SDS011;21840;44.920;8.616;2023-07-20T13:38:51;20.35;;;6.28;;
35715;SDS011;21840;44.920;8.616;2023-07-20T13:41:18;12.73;;;5.40;;
35715;SDS011;21840;44.920;8.616;2023-07-20T13:43:44;20.50;;;5.88;;
35715;SDS011;21840;44.920;8.616;2023-07-20T13:46:09;14.68;;;5.40;;
35715;SDS011;21840;44.920;8.616;2023-07-20T13:48:35;10.52;;;5.45;;
35715;SDS011;21840;44.920;8.616;2023-07-20T13:51:00;11.23;;;5.90;;
35715;SDS011;21840;44.920;8.616;2023-07-20T13:53:26;15.77;;;6.22;;
35715;SDS011;21840;44.920;8.616;2023-07-20T13:55:53;19.88;;;6.10;;
35715;SDS011;21840;44.920;8.616;2023-07-20T13:58:18;20.77;;;6.80;;
35715;SDS011;21840;44.920;8.616;2023-07-20T14:00:44;13.10;;;5.50;;
35715;SDS011;21840;44.920;8.616;2023-07-20T14:03:09;21.35;;;6.07;;
35715;SDS011;21840;44.920;8.616;2023-07-20T14:05:35;12.00;;;5.68;;
35715;SDS011;21840;44.920;8.616;2023-07-20T14:08:00;12.63;;;5.20;;
35715;SDS011;21840;44.920;8.616;2023-07-20T14:10:26;23.92;;;5.63;;
35715;SDS011;21840;44.920;8.616;2023-07-20T14:12:51;22.25;;;6.00;;
35715;SDS011;21840;44.920;8.616;2023-07-20T14:15:17;19.58;;;6.05;;
35715;SDS011;21840;44.920;8.616;2023-07-20T14:17:44;19.10;;;5.32;;
35715;SDS011;21840;44.920;8.616;2023-07-20T14:20:09;15.98;;;6.15;;
35715;SDS011;21840;44.920;8.616;2023-07-20T14:22:35;21.05;;;6.45;;
35715;SDS011;21840;44.920;8.616;2023-07-20T14:25:01;13.65;;;5.28;;
35715;SDS011;21840;44.920;8.616;2023-07-20T14:27:26;22.17;;;5.80;;
35715;SDS011;21840;44.920;8.616;2023-07-20T14:29:52;18.98;;;6.05;;
35715;SDS011;21840;44.920;8.616;2023-07-20T14:32:18;13.15;;;5.35;;
35715;SDS011;21840;44.920;8.616;2023-07-20T14:34:43;20.05;;;5.65;;
35715;SDS011;21840;44.920;8.616;2023-07-20T14:37:09;17.90;;;6.15;;
35715;SDS011;21840;44.920;8.616;2023-07-20T14:39:35;14.75;;;6.10;;
35715;SDS011;21840;44.920;8.616;2023-07-20T14:42:00;17.55;;;5.72;;
35715;SDS011;21840;44.920;8.616;2023-07-20T14:44:27;16.80;;;5.95;;
35715;SDS011;21840;44.920;8.616;2023-07-20T14:46:52;11.65;;;5.30;;
35715;SDS011;21840;44.920;8.616;2023-07-20T14:49:18;14.52;;;5.78;;
35715;SDS011;21840;44.920;8.616;2023-07-20T14:51:43;15.15;;;5.40;;